createdAt,value
2019-01-12T00:01:11.198Z,24.60
2019-01-12T00:03:53.884Z,24.13
2019-01-12T00:06:34.779Z,24.67
2019-01-12T00:09:16.613Z,24.43
2019-01-12T00:11:57.828Z,24.87
2019-01-12T00:14:38.381Z,24.47
2019-01-12T00:17:19.207Z,24.73
2019-01-12T00:19:59.931Z,23.97
2019-01-12T00:22:40.618Z,23.57
2019-01-12T00:25:22.920Z,24.63
2019-01-12T00:28:05.442Z,24.90
2019-01-12T00:30:46.455Z,24.43
2019-01-12T00:33:28.846Z,23.40
2019-01-12T00:36:09.865Z,25.23
2019-01-12T00:38:51.768Z,23.50
2019-01-12T00:41:20.194Z,24.67
2019-01-12T00:44:08.514Z,24.20
2019-01-12T00:47:17.080Z,25.83
2019-01-12T00:53:18.202Z,23.57
2019-01-12T00:56:02.578Z,24.43
2019-01-12T00:58:44.587Z,23.97
2019-01-12T01:01:25.763Z,24.60
2019-01-12T01:04:07.935Z,25.70
2019-01-12T01:06:50.234Z,23.03
2019-01-12T01:09:32.323Z,23.07
2019-01-12T01:12:13.179Z,24.27
2019-01-12T01:14:55.583Z,22.20
2019-01-12T01:17:36.903Z,23.43
2019-01-12T01:20:17.266Z,23.17
2019-01-12T01:22:59.470Z,23.07
2019-01-12T01:25:40.051Z,23.73
2019-01-12T01:28:20.557Z,24.83
2019-01-12T01:31:02.703Z,23.13
2019-01-12T01:33:45.352Z,24.20
2019-01-12T01:36:26.914Z,23.00
2019-01-12T01:39:08.888Z,24.47
2019-01-12T01:41:50.855Z,24.93
2019-01-12T01:44:32.853Z,24.93
2019-01-12T01:47:15.613Z,23.57
2019-01-12T01:49:58.467Z,23.63
2019-01-12T01:52:41.015Z,24.50
2019-01-12T01:55:23.263Z,23.63
2019-01-12T01:58:04.004Z,23.53
2019-01-12T02:00:46.298Z,23.47
2019-01-12T02:03:26.491Z,23.13
2019-01-12T02:06:08.624Z,24.17
2019-01-12T02:08:49.410Z,23.63
2019-01-12T02:11:31.936Z,23.97
2019-01-12T02:14:14.559Z,24.53
2019-01-12T02:16:57.523Z,23.17
2019-01-12T02:19:39.786Z,22.93
2019-01-12T02:22:20.926Z,24.77
2019-01-12T02:25:03.399Z,26.40
2019-01-12T02:27:45.568Z,25.80
2019-01-12T02:30:26.228Z,26.43
2019-01-12T02:33:08.146Z,23.13
2019-01-12T02:35:50.332Z,25.00
2019-01-12T02:38:32.919Z,23.50
2019-01-12T02:41:15.500Z,22.27
2019-01-12T02:43:56.560Z,22.17
2019-01-12T02:46:38.974Z,22.00
2019-01-12T02:49:20.142Z,21.37
2019-01-12T02:52:02.539Z,21.60
2019-01-12T02:54:42.887Z,21.57
2019-01-12T02:57:24.714Z,21.87
2019-01-12T03:00:05.194Z,20.80
2019-01-12T03:02:47.110Z,19.77
2019-01-12T03:05:29.377Z,19.83
2019-01-12T03:08:12.160Z,21.53
2019-01-12T03:10:54.557Z,21.17
2019-01-12T03:13:36.748Z,20.13
2019-01-12T03:16:17.346Z,21.27
2019-01-12T03:18:59.680Z,19.20
2019-01-12T03:21:40.738Z,20.43
2019-01-12T03:24:21.598Z,20.40
2019-01-12T03:27:02.392Z,21.20
2019-01-12T03:29:44.701Z,20.90
2019-01-12T03:32:27.228Z,20.73
2019-01-12T03:35:10.047Z,20.10
2019-01-12T03:37:52.759Z,21.80
2019-01-12T03:40:35.546Z,20.60
2019-01-12T03:43:17.878Z,20.23
2019-01-12T03:46:00.474Z,20.50
2019-01-12T03:48:43.027Z,19.70
2019-01-12T03:51:24.775Z,20.30
2019-01-12T03:54:05.795Z,20.23
2019-01-12T03:56:46.664Z,19.57
2019-01-12T03:59:27.331Z,20.30
2019-01-12T04:02:08.266Z,19.73
2019-01-12T04:04:49.289Z,19.60
2019-01-12T04:07:31.611Z,18.80
2019-01-12T04:10:14.155Z,19.33
2019-01-12T04:12:56.127Z,20.70
2019-01-12T04:15:38.084Z,19.70
2019-01-12T04:18:20.839Z,19.97
2019-01-12T04:21:02.563Z,18.70
2019-01-12T04:23:44.787Z,19.53
2019-01-12T04:26:25.471Z,18.50
2019-01-12T04:29:06.178Z,19.63
2019-01-12T04:31:46.499Z,18.80
2019-01-12T04:34:27.527Z,19.63
2019-01-12T04:37:08.071Z,18.27
2019-01-12T04:42:40.259Z,19.03
2019-01-12T04:45:20.627Z,18.43
2019-01-12T04:48:01.308Z,18.93
2019-01-12T04:50:41.810Z,18.33
2019-01-12T04:53:22.870Z,19.77
2019-01-12T04:56:03.202Z,19.63
2019-01-12T04:58:43.850Z,19.27
2019-01-12T05:01:24.408Z,18.47
2019-01-12T05:04:06.680Z,18.43
2019-01-12T05:06:48.072Z,17.73
2019-01-12T05:09:29.353Z,18.30
2019-01-12T05:12:10.039Z,19.53
2019-01-12T05:14:50.511Z,18.47
2019-01-12T05:17:18.973Z,18.73
2019-01-12T05:20:27.473Z,18.63
2019-01-12T05:23:15.954Z,18.53
2019-01-12T05:26:04.101Z,18.83
2019-01-12T05:28:51.908Z,18.53
2019-01-12T05:31:39.665Z,19.23
2019-01-12T05:34:27.704Z,18.07
2019-01-12T05:37:16.023Z,19.80
2019-01-12T05:40:24.722Z,20.03
2019-01-12T05:43:33.305Z,18.53
2019-01-12T05:46:21.390Z,19.13
2019-01-12T05:52:02.924Z,18.93
2019-01-12T05:54:44.991Z,19.13
2019-01-12T05:57:26.400Z,19.30
2019-01-12T06:00:08.324Z,20.93
2019-01-12T06:02:48.943Z,18.93
2019-01-12T06:05:30.943Z,19.63
2019-01-12T06:08:12.006Z,18.87
2019-01-12T06:10:54.170Z,18.40
2019-01-12T06:13:37.189Z,19.40
2019-01-12T06:16:18.295Z,19.27
2019-01-12T06:19:00.305Z,18.93
2019-01-12T06:21:41.924Z,19.63
2019-01-12T06:24:23.052Z,19.30
2019-01-12T06:27:05.323Z,19.50
2019-01-12T06:32:37.107Z,18.83
2019-01-12T06:35:19.561Z,18.73
2019-01-12T06:38:00.623Z,18.67
2019-01-12T06:40:41.617Z,19.33
2019-01-12T06:43:22.178Z,18.93
2019-01-12T06:46:02.888Z,19.00
2019-01-12T06:48:43.736Z,18.70
2019-01-12T06:51:25.906Z,20.20
2019-01-12T06:54:07.914Z,19.13
2019-01-12T06:56:48.859Z,20.13
2019-01-12T06:59:29.556Z,18.77
2019-01-12T07:02:11.765Z,20.50
2019-01-12T07:04:52.888Z,20.30
2019-01-12T07:07:33.395Z,20.73
2019-01-12T07:10:15.861Z,20.20
2019-01-12T07:12:58.236Z,19.00
2019-01-12T07:15:39.540Z,18.87
2019-01-12T07:18:20.883Z,20.77
2019-01-12T07:21:01.837Z,18.73
2019-01-12T07:23:44.469Z,19.00
2019-01-12T07:26:26.269Z,18.30
2019-01-12T07:29:08.123Z,18.63
2019-01-12T07:31:50.218Z,18.13
2019-01-12T07:34:31.180Z,18.80
2019-01-12T07:37:11.844Z,19.67
2019-01-12T07:39:52.572Z,18.80
2019-01-12T07:42:33.408Z,19.10
2019-01-12T07:45:14.322Z,19.13
2019-01-12T07:47:55.124Z,19.97
2019-01-12T07:50:35.775Z,20.30
2019-01-12T07:53:17.970Z,19.53
2019-01-12T07:56:00.502Z,19.20
2019-01-12T07:58:42.669Z,19.33
2019-01-12T08:01:23.503Z,18.93
2019-01-12T08:04:05.363Z,19.43
2019-01-12T08:06:46.682Z,18.13
2019-01-12T08:09:27.822Z,17.53
2019-01-12T08:12:08.957Z,19.07
2019-01-12T08:14:51.105Z,19.27
2019-01-12T08:17:31.763Z,18.13
2019-01-12T08:20:14.291Z,19.03
2019-01-12T08:22:54.983Z,18.60
2019-01-12T08:25:36.937Z,18.87
2019-01-12T08:28:17.961Z,18.67
2019-01-12T08:30:59.727Z,18.57
2019-01-12T08:33:42.224Z,17.90
2019-01-12T08:36:22.521Z,27.87
2019-01-12T08:39:04.429Z,21.00
2019-01-12T08:41:46.858Z,19.17
2019-01-12T08:44:28.078Z,19.97
2019-01-12T08:47:08.851Z,20.00
2019-01-12T08:49:49.396Z,20.53
2019-01-12T08:52:34.364Z,19.10
2019-01-12T08:55:17.560Z,18.73
2019-01-12T08:57:58.274Z,20.00
2019-01-12T09:00:39.090Z,18.60
2019-01-12T09:03:20.564Z,20.67
2019-01-12T09:06:01.321Z,19.33
2019-01-12T09:08:42.461Z,19.27
2019-01-12T09:11:25.409Z,20.10
2019-01-12T09:14:06.129Z,21.90
2019-01-12T09:16:47.033Z,19.77
2019-01-12T09:19:55.783Z,19.60
2019-01-12T09:23:04.353Z,20.23
2019-01-12T09:25:54.482Z,20.13
2019-01-12T09:38:58.633Z,19.87
2019-01-12T09:41:46.426Z,19.83
2019-01-12T09:44:53.773Z,20.43
2019-01-12T09:48:00.883Z,20.40
2019-01-12T09:50:49.239Z,18.43
2019-01-12T09:53:30.134Z,17.93
2019-01-12T09:56:11.345Z,19.23
2019-01-12T09:58:51.998Z,19.27
2019-01-12T10:01:34.816Z,19.47
2019-01-12T10:04:17.680Z,18.50
2019-01-12T10:06:59.435Z,18.60
2019-01-12T10:09:39.975Z,19.20
2019-01-12T10:12:20.930Z,20.03
2019-01-12T10:15:01.606Z,18.10
2019-01-12T10:17:42.322Z,19.23
2019-01-12T10:20:23.133Z,17.97
2019-01-12T10:23:04.346Z,19.23
2019-01-12T10:25:45.487Z,18.63
2019-01-12T10:28:31.434Z,17.70
2019-01-12T10:33:55.774Z,79.83
2019-01-12T10:36:39.972Z,17.10
2019-01-12T10:39:21.376Z,17.27
2019-01-12T10:42:02.158Z,16.97
2019-01-12T10:44:42.922Z,17.33
2019-01-12T10:47:24.280Z,16.53
2019-01-12T10:50:05.631Z,16.50
2019-01-12T10:52:47.230Z,18.17
2019-01-12T10:55:29.000Z,16.67
2019-01-12T10:58:10.186Z,16.77
2019-01-12T11:00:50.649Z,16.77
2019-01-12T11:03:31.735Z,17.63
2019-01-12T11:06:12.894Z,18.57
2019-01-12T11:08:54.013Z,17.73
2019-01-12T11:11:36.409Z,19.13
2019-01-12T11:14:17.160Z,17.53
2019-01-12T11:19:42.115Z,17.70
2019-01-12T11:22:23.110Z,18.80
2019-01-12T11:25:03.743Z,18.60
2019-01-12T11:27:44.679Z,18.80
2019-01-12T11:30:25.352Z,18.30
2019-01-12T11:33:09.198Z,17.37
2019-01-12T11:35:52.081Z,18.17
2019-01-12T11:38:32.951Z,17.13
2019-01-12T11:41:14.401Z,17.00
2019-01-12T11:43:56.972Z,16.57
2019-01-12T11:46:38.357Z,16.47
2019-01-12T11:49:06.804Z,16.60
2019-01-12T11:51:54.578Z,16.60
2019-01-12T11:54:35.374Z,16.40
2019-01-12T11:57:19.309Z,16.43
2019-01-12T11:59:58.380Z,15.60
2019-01-12T12:02:38.963Z,15.57
2019-01-12T12:05:19.344Z,15.57
2019-01-12T12:08:00.824Z,15.23
2019-01-12T12:10:41.836Z,16.53
2019-01-12T12:13:22.723Z,15.73
2019-01-12T12:16:03.467Z,17.03
2019-01-12T12:18:43.949Z,17.00
2019-01-12T12:21:24.833Z,16.20
2019-01-12T12:24:05.819Z,16.43
2019-01-12T12:26:46.101Z,15.43
2019-01-12T12:29:26.994Z,14.67
2019-01-12T12:32:07.694Z,16.13
2019-01-12T12:34:48.651Z,15.00
2019-01-12T12:37:29.466Z,15.87
2019-01-12T12:40:10.509Z,15.60
2019-01-12T12:42:53.231Z,15.73
2019-01-12T12:45:35.054Z,16.07
2019-01-12T12:48:15.928Z,15.43
2019-01-12T12:50:56.383Z,14.97
2019-01-12T12:53:37.175Z,16.23
2019-01-12T12:56:17.912Z,16.60
2019-01-12T12:58:59.128Z,15.23
2019-01-12T13:01:40.299Z,16.43
2019-01-12T13:04:21.217Z,15.40
2019-01-12T13:07:02.271Z,15.50
2019-01-12T13:09:42.968Z,15.17
2019-01-12T13:12:24.063Z,16.50
2019-01-12T13:15:10.691Z,17.03
2019-01-12T13:17:50.321Z,16.50
2019-01-12T13:20:30.873Z,16.87
2019-01-12T13:23:11.739Z,15.80
2019-01-12T13:25:52.274Z,16.63
2019-01-12T13:28:33.222Z,16.27
2019-01-12T13:31:14.150Z,16.33
2019-01-12T13:33:54.897Z,16.73
2019-01-12T13:36:35.714Z,14.93
2019-01-12T13:39:16.548Z,14.80
2019-01-12T13:41:57.353Z,13.93
2019-01-12T13:44:38.390Z,13.53
2019-01-12T13:47:21.018Z,13.77
2019-01-12T13:50:01.319Z,13.53
2019-01-12T13:52:43.579Z,14.33
2019-01-12T13:55:24.580Z,14.07
2019-01-12T13:58:05.511Z,13.87
2019-01-12T14:03:37.409Z,12.73
2019-01-12T14:06:18.240Z,14.17
2019-01-12T14:09:01.829Z,12.50
2019-01-12T14:11:42.899Z,14.57
2019-01-12T14:14:23.502Z,13.83
2019-01-12T14:17:03.938Z,13.57
2019-01-12T14:19:44.743Z,13.60
2019-01-12T14:22:25.855Z,13.50
2019-01-12T14:25:07.040Z,11.87
2019-01-12T14:27:54.279Z,13.30
2019-01-12T14:30:29.769Z,13.73
2019-01-12T14:33:10.549Z,12.77
2019-01-12T14:35:51.109Z,11.97
2019-01-12T14:38:31.920Z,11.70
2019-01-12T14:41:12.645Z,12.00
2019-01-12T14:43:53.087Z,12.03
2019-01-12T14:46:33.500Z,11.60
2019-01-12T14:49:14.092Z,11.27
2019-01-12T14:51:54.702Z,11.13
2019-01-12T14:54:35.292Z,11.20
2019-01-12T14:59:59.575Z,11.23
2019-01-12T15:02:39.912Z,11.83
2019-01-12T15:05:20.575Z,11.50
2019-01-12T15:08:01.025Z,11.30
2019-01-12T15:10:41.721Z,10.67
2019-01-12T15:13:23.202Z,10.23
2019-01-12T15:16:04.317Z,10.00
2019-01-12T15:18:45.072Z,10.63
2019-01-12T15:21:25.519Z,9.83
2019-01-12T15:24:06.086Z,11.30
2019-01-12T15:26:47.303Z,11.03
2019-01-12T15:29:28.008Z,11.27
2019-01-12T15:32:09.041Z,11.13
2019-01-12T15:34:49.975Z,11.67
2019-01-12T15:37:30.421Z,11.50
2019-01-12T15:40:11.266Z,11.87
2019-01-12T15:42:52.263Z,11.90
2019-01-12T15:45:32.978Z,12.47
2019-01-12T15:48:13.895Z,13.63
2019-01-12T15:50:55.033Z,14.20
2019-01-12T15:53:35.783Z,13.50
2019-01-12T15:56:16.123Z,13.93
2019-01-12T15:58:56.766Z,13.43
2019-01-12T16:01:37.718Z,13.20
2019-01-12T16:04:18.870Z,14.40
2019-01-12T16:07:00.120Z,14.17
2019-01-12T16:09:40.747Z,12.80
2019-01-12T16:12:21.311Z,12.30
2019-01-12T16:15:02.136Z,10.97
2019-01-12T16:17:42.801Z,12.60
2019-01-12T16:20:23.118Z,13.40
2019-01-12T16:23:07.054Z,14.47
2019-01-12T16:25:48.150Z,11.57
2019-01-12T16:28:28.702Z,13.20
2019-01-12T16:31:09.011Z,12.70
2019-01-12T16:33:49.638Z,12.03
2019-01-12T16:36:30.255Z,11.20
2019-01-12T16:44:53.753Z,10.47
2019-01-12T16:47:34.612Z,10.47
2019-01-12T16:50:15.858Z,10.60
2019-01-12T16:52:57.032Z,10.60
2019-01-12T16:55:38.067Z,10.90
2019-01-12T16:58:22.468Z,11.10
2019-01-12T17:01:03.280Z,10.73
2019-01-12T17:03:46.618Z,10.57
2019-01-12T17:06:27.829Z,10.77
2019-01-12T17:11:52.917Z,9.33
2019-01-12T17:14:33.714Z,9.53
2019-01-12T17:17:15.526Z,10.50
2019-01-12T17:22:40.925Z,11.37
2019-01-12T17:25:22.089Z,11.03
2019-01-12T17:28:02.302Z,12.03
2019-01-12T17:33:27.332Z,10.77
2019-01-12T17:36:07.939Z,10.17
2019-01-12T17:38:48.998Z,10.53
2019-01-12T17:41:29.438Z,10.40
2019-01-12T17:44:13.622Z,11.20
2019-01-12T17:46:54.371Z,10.47
2019-01-12T17:49:34.728Z,11.53
2019-01-12T17:52:19.021Z,11.33
2019-01-12T17:55:00.403Z,11.27
2019-01-12T17:57:41.362Z,12.43
2019-01-12T18:00:23.586Z,11.97
2019-01-12T18:03:07.845Z,11.50
2019-01-12T18:05:48.840Z,13.00
2019-01-12T18:08:31.085Z,12.27
2019-01-12T18:11:11.512Z,12.37
2019-01-12T18:13:52.795Z,12.60
2019-01-12T18:16:33.938Z,12.07
2019-01-12T18:19:14.680Z,11.70
2019-01-12T18:21:55.800Z,11.27
2019-01-12T18:24:36.381Z,11.57
2019-01-12T18:27:17.521Z,11.47
2019-01-12T18:29:59.351Z,12.03
2019-01-12T18:32:40.734Z,12.03
2019-01-12T18:38:06.434Z,13.00
2019-01-12T18:40:47.350Z,12.70
2019-01-12T18:43:27.970Z,12.23
2019-01-12T18:46:12.174Z,11.77
2019-01-12T18:48:50.683Z,11.93
2019-01-12T18:51:31.450Z,11.53
2019-01-12T18:54:12.191Z,11.13
2019-01-12T18:56:52.731Z,11.40
2019-01-12T18:59:33.614Z,10.60
2019-01-12T19:02:14.640Z,11.17
2019-01-12T19:04:55.291Z,10.73
2019-01-12T19:07:36.339Z,11.90
2019-01-12T19:16:27.427Z,12.33
2019-01-12T19:19:08.760Z,12.50
2019-01-12T19:21:49.113Z,12.20
2019-01-12T19:24:30.292Z,12.37
2019-01-12T19:27:11.411Z,11.83
2019-01-12T19:29:52.544Z,12.83
2019-01-12T19:32:33.043Z,12.47
2019-01-12T19:35:14.778Z,13.00
2019-01-12T19:37:55.052Z,13.57
2019-01-12T19:40:35.489Z,12.80
2019-01-12T19:43:16.290Z,13.63
2019-01-12T19:45:56.974Z,13.20
2019-01-12T19:48:38.654Z,13.10
2019-01-12T19:51:19.357Z,12.90
2019-01-12T19:54:00.307Z,12.87
2019-01-12T19:56:40.789Z,11.77
2019-01-12T19:59:25.008Z,11.27
2019-01-12T20:02:05.917Z,9.90
2019-01-12T20:04:46.759Z,10.40
2019-01-12T20:07:27.222Z,9.53
2019-01-12T20:10:08.117Z,9.53
2019-01-12T20:15:33.205Z,9.23
2019-01-12T20:18:14.026Z,9.00
2019-01-12T20:20:54.748Z,9.50
2019-01-12T20:23:35.615Z,8.97
2019-01-12T20:26:16.801Z,9.17
2019-01-12T20:28:58.162Z,8.70
2019-01-12T20:31:38.959Z,9.33
2019-01-12T20:34:19.367Z,8.37
2019-01-12T20:37:00.324Z,8.23
2019-01-12T20:39:40.643Z,7.40
2019-01-12T20:42:21.647Z,8.00
2019-01-12T20:45:02.271Z,8.13
2019-01-12T20:47:43.378Z,7.93
2019-01-12T20:50:24.348Z,7.70
2019-01-12T20:53:04.924Z,7.37
2019-01-12T20:55:45.537Z,7.50
2019-01-12T20:58:25.901Z,6.60
2019-01-12T21:01:06.783Z,6.87
2019-01-12T21:03:47.723Z,7.17
2019-01-12T21:06:28.316Z,6.60
2019-01-12T21:09:10.208Z,6.47
2019-01-12T21:11:51.235Z,6.40
2019-01-12T21:14:32.432Z,6.83
2019-01-12T21:17:13.372Z,6.47
2019-01-12T21:19:54.252Z,6.87
2019-01-12T21:22:35.178Z,6.47
2019-01-12T21:25:16.492Z,6.40
2019-01-12T21:27:57.747Z,7.10
2019-01-12T21:30:39.852Z,6.10
2019-01-12T21:33:20.449Z,6.37
2019-01-12T21:36:01.128Z,5.77
2019-01-12T21:38:42.143Z,5.63
2019-01-12T21:41:23.020Z,5.47
2019-01-12T21:44:03.765Z,5.20
2019-01-12T21:46:44.659Z,4.30
2019-01-12T21:49:25.743Z,4.60
2019-01-12T21:52:06.606Z,4.87
2019-01-12T21:54:47.348Z,4.33
2019-01-12T21:57:27.808Z,4.43
2019-01-12T22:00:09.052Z,4.07
2019-01-12T22:02:49.892Z,4.10
2019-01-12T22:05:30.333Z,4.33
2019-01-12T22:08:11.699Z,3.97
2019-01-12T22:10:52.646Z,4.47
2019-01-12T22:13:34.142Z,4.60
2019-01-12T22:16:14.803Z,4.60
2019-01-12T22:18:55.476Z,4.70
2019-01-12T22:21:36.384Z,4.37
2019-01-12T22:24:18.078Z,4.27
2019-01-12T22:26:59.696Z,3.93
2019-01-12T22:29:40.460Z,3.93
2019-01-12T22:32:21.046Z,3.93
2019-01-12T22:37:46.175Z,3.73
2019-01-12T22:40:26.883Z,4.20
2019-01-12T22:43:08.045Z,3.60
2019-01-12T22:45:49.616Z,3.50
2019-01-12T22:48:30.027Z,3.57
2019-01-12T22:51:10.717Z,3.13
2019-01-12T22:53:51.388Z,3.03
2019-01-12T22:56:33.959Z,3.20
2019-01-12T22:59:14.874Z,3.10
2019-01-12T23:01:55.557Z,2.90
2019-01-12T23:04:35.816Z,2.60
2019-01-12T23:07:16.541Z,2.80
2019-01-12T23:09:57.037Z,2.20
2019-01-12T23:12:39.756Z,2.60
2019-01-12T23:15:20.202Z,3.00
2019-01-12T23:18:00.579Z,3.00
2019-01-12T23:20:41.168Z,3.00
2019-01-12T23:23:21.636Z,2.40
2019-01-12T23:26:03.292Z,2.30
2019-01-12T23:28:44.714Z,2.63
2019-01-12T23:31:26.600Z,2.67
2019-01-12T23:34:07.512Z,2.33
2019-01-12T23:36:48.450Z,2.60
2019-01-12T23:39:29.048Z,2.50
2019-01-12T23:42:09.686Z,2.57
2019-01-12T23:44:50.151Z,2.23
2019-01-12T23:47:18.574Z,2.03
2019-01-12T23:50:27.050Z,2.50
2019-01-12T23:53:07.992Z,2.47
2019-01-12T23:55:48.555Z,2.10
2019-01-12T23:58:29.495Z,2.17
